createdAt,value
2022-10-28T00:03:06.199Z,81.19
2022-10-28T00:08:10.232Z,80.43
2022-10-28T00:13:13.824Z,80.50
2022-10-28T00:18:17.521Z,81.01
2022-10-28T00:23:20.865Z,80.91
2022-10-28T00:28:24.842Z,80.64
2022-10-28T00:33:28.941Z,80.55
2022-10-28T00:38:33.775Z,80.10
2022-10-28T00:43:50.194Z,80.44
2022-10-28T00:49:06.608Z,80.62
2022-10-28T00:54:11.751Z,81.10
2022-10-28T00:59:26.416Z,81.04
2022-10-28T01:04:30.557Z,81.09
2022-10-28T01:09:35.204Z,81.40
2022-10-28T01:15:11.667Z,81.60
2022-10-28T01:20:25.871Z,81.68
2022-10-28T01:26:07.764Z,81.54
2022-10-28T01:31:35.302Z,81.53
2022-10-28T01:36:55.756Z,80.75
2022-10-28T01:42:25.257Z,81.13
2022-10-28T01:47:38.229Z,81.84
2022-10-28T01:52:44.979Z,81.52
2022-10-28T01:57:53.282Z,80.91
2022-10-28T02:02:57.531Z,81.43
2022-10-28T02:08:25.016Z,81.48
2022-10-28T02:13:46.984Z,81.26
2022-10-28T02:19:07.267Z,81.25
2022-10-28T02:24:40.409Z,81.20
2022-10-28T02:30:02.083Z,81.19
2022-10-28T02:35:15.529Z,81.55
2022-10-28T02:40:25.918Z,81.48
2022-10-28T02:45:40.390Z,81.57
2022-10-28T02:50:51.497Z,82.32
2022-10-28T02:56:01.644Z,82.07
2022-10-28T03:01:06.406Z,82.34
2022-10-28T03:06:11.305Z,82.16
2022-10-28T03:11:16.245Z,82.38
2022-10-28T03:16:20.021Z,82.71
2022-10-28T03:21:23.564Z,83.35
2022-10-28T03:26:26.910Z,84.19
2022-10-28T03:31:31.007Z,84.75
2022-10-28T03:36:35.534Z,85.44
2022-10-28T03:41:40.212Z,85.56
2022-10-28T03:46:44.606Z,85.64
2022-10-28T03:51:49.293Z,85.77
2022-10-28T03:56:53.874Z,85.81
2022-10-28T04:01:59.421Z,85.90
2022-10-28T04:07:05.047Z,85.81
2022-10-28T04:12:12.110Z,85.51
2022-10-28T04:17:16.014Z,85.69
2022-10-28T04:22:19.702Z,85.67
2022-10-28T04:27:23.864Z,85.82
2022-10-28T04:32:27.531Z,85.76
2022-10-28T04:37:31.063Z,85.97
2022-10-28T04:42:35.022Z,86.07
2022-10-28T04:47:38.509Z,86.08
2022-10-28T04:52:41.787Z,86.03
2022-10-28T04:57:45.813Z,86.01
2022-10-28T05:02:49.306Z,86.07
2022-10-28T05:07:52.834Z,86.11
2022-10-28T05:12:56.583Z,86.02
2022-10-28T05:18:01.003Z,86.07
2022-10-28T05:23:04.660Z,86.01
2022-10-28T05:29:16.942Z,86.12
2022-10-28T05:34:27.683Z,86.04
2022-10-28T05:39:30.817Z,85.97
2022-10-28T05:44:34.007Z,86.19
2022-10-28T05:49:46.812Z,86.23
2022-10-28T05:54:57.770Z,86.46
2022-10-28T06:00:01.305Z,86.43
2022-10-28T06:05:05.848Z,86.50
2022-10-28T06:10:11.500Z,86.41
2022-10-28T06:15:15.936Z,86.32
2022-10-28T06:20:20.472Z,86.23
2022-10-28T06:25:26.206Z,86.40
2022-10-28T06:30:29.640Z,86.55
2022-10-28T06:35:33.113Z,86.58
2022-10-28T06:40:37.637Z,87.07
2022-10-28T06:45:41.183Z,87.03
2022-10-28T06:50:46.367Z,86.46
2022-10-28T06:55:57.581Z,86.22
2022-10-28T07:01:06.054Z,85.53
2022-10-28T07:06:20.267Z,84.82
2022-10-28T07:11:24.573Z,84.86
2022-10-28T07:16:28.552Z,84.98
2022-10-28T07:21:33.007Z,84.90
2022-10-28T07:27:33.650Z,84.17
2022-10-28T07:32:55.174Z,84.15
2022-10-28T07:37:59.244Z,83.42
2022-10-28T07:43:02.844Z,83.75
2022-10-28T07:48:07.569Z,82.87
2022-10-28T07:53:11.033Z,82.68
2022-10-28T07:58:14.544Z,82.80
2022-10-28T08:03:18.166Z,83.48
2022-10-28T08:08:21.434Z,83.55
2022-10-28T08:13:25.595Z,83.88
2022-10-28T08:18:28.841Z,83.95
2022-10-28T08:23:32.244Z,84.62
2022-10-28T08:28:35.656Z,84.97
2022-10-28T08:33:42.559Z,85.03
2022-10-28T08:38:47.343Z,84.70
2022-10-28T08:44:06.646Z,84.51
2022-10-28T08:49:14.944Z,84.30
2022-10-28T08:54:26.127Z,83.88
2022-10-28T08:59:42.891Z,83.19
2022-10-28T09:04:48.386Z,83.24
2022-10-28T09:09:56.901Z,83.10
2022-10-28T09:15:27.809Z,82.56
2022-10-28T09:20:44.774Z,82.34
2022-10-28T09:26:07.488Z,81.61
2022-10-28T09:31:21.686Z,81.19
2022-10-28T09:36:37.736Z,80.62
2022-10-28T09:41:45.370Z,80.48
2022-10-28T09:47:00.420Z,80.72
2022-10-28T09:52:15.263Z,80.14
2022-10-28T09:57:21.496Z,79.36
2022-10-28T10:02:28.365Z,78.94
2022-10-28T10:07:38.954Z,78.51
2022-10-28T10:12:45.534Z,78.05
2022-10-28T10:17:53.674Z,77.76
2022-10-28T10:22:58.067Z,77.17
2022-10-28T10:28:05.057Z,76.71
2022-10-28T10:33:23.771Z,76.31
2022-10-28T10:38:30.655Z,75.71
2022-10-28T10:43:38.415Z,74.99
2022-10-28T10:48:45.197Z,74.45
2022-10-28T10:53:51.599Z,73.96
2022-10-28T10:58:59.281Z,73.88
2022-10-28T11:04:07.954Z,73.38
2022-10-28T11:09:19.969Z,73.01
2022-10-28T11:14:25.445Z,72.60
2022-10-28T11:19:37.040Z,72.18
2022-10-28T11:24:47.775Z,71.87
2022-10-28T11:29:51.354Z,71.50
2022-10-28T11:35:37.289Z,71.36
2022-10-28T11:41:11.191Z,70.77
2022-10-28T11:46:40.391Z,70.41
2022-10-28T11:52:02.563Z,70.11
2022-10-28T11:57:17.931Z,69.80
2022-10-28T12:02:52.412Z,69.37
2022-10-28T12:08:18.986Z,69.32
2022-10-28T12:13:41.807Z,69.00
2022-10-28T12:18:55.152Z,68.75
2022-10-28T12:23:59.753Z,68.58
2022-10-28T12:29:09.871Z,68.58
2022-10-28T12:34:21.379Z,68.81
2022-10-28T12:39:26.164Z,68.80
2022-10-28T12:44:34.140Z,68.35
2022-10-28T12:49:46.464Z,68.05
2022-10-28T12:54:59.715Z,68.16
2022-10-28T13:00:25.202Z,68.10
2022-10-28T13:05:42.636Z,67.79
2022-10-28T13:10:57.519Z,67.97
2022-10-28T13:16:24.215Z,67.81
2022-10-28T13:21:49.329Z,68.02
2022-10-28T13:26:55.634Z,68.29
2022-10-28T13:32:01.101Z,68.14
2022-10-28T13:37:16.572Z,68.06
2022-10-28T13:42:23.941Z,68.02
2022-10-28T13:47:36.529Z,67.77
2022-10-28T13:52:42.633Z,67.70
2022-10-28T13:57:49.137Z,67.37
2022-10-28T14:02:56.085Z,67.20
2022-10-28T14:08:07.471Z,67.17
2022-10-28T14:13:21.980Z,67.16
2022-10-28T14:18:44.153Z,67.00
2022-10-28T14:24:09.637Z,66.85
2022-10-28T14:29:33.297Z,66.95
2022-10-28T14:34:43.887Z,67.13
2022-10-28T14:40:09.340Z,67.28
2022-10-28T14:45:13.553Z,67.73
2022-10-28T14:50:22.671Z,67.88
2022-10-28T14:55:33.968Z,67.99
2022-10-28T15:00:46.786Z,68.22
2022-10-28T15:05:51.986Z,68.31
2022-10-28T15:10:56.840Z,68.49
2022-10-28T15:16:04.618Z,68.62
2022-10-28T15:21:11.135Z,68.80
2022-10-28T15:26:16.855Z,68.85
2022-10-28T15:31:21.004Z,69.38
2022-10-28T15:36:27.969Z,69.71
2022-10-28T15:41:45.941Z,69.91
2022-10-28T15:46:51.501Z,69.99
2022-10-28T15:52:17.373Z,70.22
2022-10-28T15:57:27.629Z,70.53
2022-10-28T16:02:42.839Z,70.79
2022-10-28T16:07:47.350Z,70.88
2022-10-28T16:12:51.761Z,71.49
2022-10-28T16:17:56.470Z,71.42
2022-10-28T16:23:02.919Z,71.56
2022-10-28T16:28:26.140Z,71.75
2022-10-28T16:33:34.443Z,72.02
2022-10-28T16:38:39.596Z,72.42
2022-10-28T16:43:44.345Z,72.40
2022-10-28T16:48:50.230Z,72.42
2022-10-28T16:53:54.345Z,72.78
2022-10-28T16:58:58.129Z,72.99
2022-10-28T17:04:01.984Z,73.08
2022-10-28T17:09:05.669Z,73.27
2022-10-28T17:14:10.194Z,73.44
2022-10-28T17:19:13.628Z,73.64
2022-10-28T17:24:17.137Z,73.55
2022-10-28T17:29:20.494Z,73.84
2022-10-28T17:34:24.050Z,74.13
2022-10-28T17:39:27.545Z,74.21
2022-10-28T17:44:31.144Z,74.50
2022-10-28T17:49:37.487Z,74.56
2022-10-28T17:54:40.806Z,74.75
2022-10-28T17:59:44.799Z,74.73
2022-10-28T18:04:49.725Z,74.90
2022-10-28T18:09:55.149Z,74.99
2022-10-28T18:14:58.950Z,75.10
2022-10-28T18:20:03.323Z,74.98
2022-10-28T18:25:09.059Z,75.08
2022-10-28T18:30:13.989Z,75.42
2022-10-28T18:35:18.712Z,75.45
2022-10-28T18:40:30.021Z,75.69
2022-10-28T18:45:36.160Z,75.67
2022-10-28T18:50:46.969Z,75.85
2022-10-28T18:55:54.821Z,75.83
2022-10-28T19:01:06.243Z,75.76
2022-10-28T19:06:18.416Z,75.90
2022-10-28T19:11:26.237Z,75.77
2022-10-28T19:16:44.502Z,75.79
2022-10-28T19:21:51.530Z,75.72
2022-10-28T19:26:56.395Z,75.72
2022-10-28T19:32:00.705Z,75.81
2022-10-28T19:37:05.246Z,76.03
2022-10-28T19:42:09.362Z,75.90
2022-10-28T19:47:16.704Z,75.99
2022-10-28T19:52:20.682Z,76.15
2022-10-28T19:57:25.563Z,76.20
2022-10-28T20:02:30.586Z,76.11
2022-10-28T20:07:34.892Z,75.91
2022-10-28T20:12:38.715Z,76.10
2022-10-28T20:17:46.935Z,76.10
2022-10-28T20:22:51.655Z,76.31
2022-10-28T20:27:55.651Z,76.32
2022-10-28T20:33:00.338Z,76.18
2022-10-28T20:38:04.422Z,76.31
2022-10-28T20:43:07.959Z,76.08
2022-10-28T20:48:12.607Z,75.95
2022-10-28T20:53:16.903Z,76.15
2022-10-28T20:58:22.987Z,75.86
2022-10-28T21:03:27.312Z,75.90
2022-10-28T21:08:31.377Z,76.07
2022-10-28T21:13:35.827Z,76.13
2022-10-28T21:18:41.041Z,75.86
2022-10-28T21:23:46.857Z,76.19
2022-10-28T21:28:52.770Z,76.32
2022-10-28T21:34:01.838Z,76.34
2022-10-28T21:39:10.567Z,76.30
2022-10-28T21:44:14.580Z,76.47
2022-10-28T21:49:18.705Z,76.46
2022-10-28T21:54:24.923Z,76.38
2022-10-28T21:59:32.867Z,76.39
2022-10-28T22:04:40.690Z,76.61
2022-10-28T22:09:49.834Z,76.57
2022-10-28T22:14:56.738Z,76.34
2022-10-28T22:20:02.497Z,76.42
2022-10-28T22:25:09.488Z,76.41
2022-10-28T22:30:16.509Z,76.42
2022-10-28T22:35:21.850Z,76.40
2022-10-28T22:40:26.924Z,76.25
2022-10-28T22:45:32.237Z,76.38
2022-10-28T22:50:36.693Z,76.64
2022-10-28T22:55:41.617Z,76.72
2022-10-28T23:00:47.394Z,76.49
2022-10-28T23:05:52.500Z,76.45
2022-10-28T23:10:58.619Z,76.61
2022-10-28T23:16:11.698Z,76.44
2022-10-28T23:21:23.125Z,76.60
2022-10-28T23:26:29.436Z,76.60
2022-10-28T23:31:35.105Z,76.64
2022-10-28T23:36:43.092Z,76.56
2022-10-28T23:41:49.136Z,76.44
2022-10-28T23:46:56.047Z,76.73
2022-10-28T23:52:01.208Z,76.42
2022-10-28T23:57:06.379Z,76.69
